Flight Track Log - Related Links

Times and Time Zones

All times are in EDT time to prevent confusion due to time zone crossing. See the N50545 flight status page for this flight to view local times or setup timezone preferences in your user account.

Time Position Orientation Groundspeed Altitude Reporting Facility
EDT Latitude Longitude Course Direction KTS MPH feet Rate Location/Type
Sun 12:34:23 PM 36.0333 -86.5000 163° South 96 110 6,100  Level Nashville TRACON
Sun 12:35:17 PM 36.0167 -86.5000 180° South 103 119 6,400 400 Climbing Nashville TRACON
Sun 12:36:23 PM 35.9833 -86.4833 158° South 118 136 6,900 450 Climbing Nashville TRACON
Sun 12:37:17 PM 35.9500 -86.4833 180° South 117 135 7,300 400 Climbing Nashville TRACON
Sun 12:38:23 PM 35.9167 -86.4667 158° South 115 132 7,700 372 Climbing Nashville TRACON
Sun 12:39:00 PM 36.1226 -86.6775 163° South  Level Estimated
Sun 12:39:42 PM 35.8667 -86.4500 165° South 115 132 8,200  Level Nashville TRACON
Sun 12:40:36 PM 35.8500 -86.4500 180° South 113 130 8,500 324 Climbing Nashville TRACON
Sun 12:40:56 PM 35.8319 -86.4422 161° South 110 127 8,600 375 Climbing Memphis Center
Sun 12:41:56 PM 35.8067 -86.4331 164° South 110 127 9,000 300 Climbing Memphis Center
Sun 12:42:56 PM 35.7769 -86.4217 163° South 110 127 9,200 300 Climbing Memphis Center
Sun 12:43:56 PM 35.7497 -86.4103 161° South 110 127 9,600 350 Climbing Memphis Center
Sun 12:44:56 PM 35.7200 -86.3989 163° South 103 119 9,900 300 Climbing Memphis Center
Sun 12:45:56 PM 35.6906 -86.3900 166° South 109 125 10,200 300 Climbing Memphis Center
Sun 12:46:56 PM 35.6633 -86.3836 169° South 104 120 10,500 300 Climbing Memphis Center
Sun 12:47:56 PM 35.6381 -86.3772 168° South 104 120 10,800 300 Climbing Memphis Center
Sun 12:48:56 PM 35.6106 -86.3683 165° South 104 120 11,100 250 Climbing Memphis Center
Sun 12:49:56 PM 35.5853 -86.3594 164° South 104 120 11,300 150 Climbing Memphis Center
Sun 12:50:56 PM 35.5578 -86.3478 161° South 104 120 11,400 100 Climbing Memphis Center
Sun 12:51:56 PM 35.5264 -86.3442 175° South 104 120 11,500 50 Climbing Memphis Center
Sun 12:52:56 PM 35.4906 -86.3333 166° South 121 139 11,500  Level Memphis Center
Sun 12:53:56 PM 35.4525 -86.3197 164° South 121 139 11,500  Level Memphis Center
Sun 12:54:56 PM 35.4189 -86.3086 165° South 126 145 11,500  Level Memphis Center
Sun 12:55:56 PM 35.3831 -86.3003 169° South 126 145 11,500  Level Memphis Center
Sun 12:56:56 PM 35.3494 -86.2892 165° South 126 145 11,500  Level Memphis Center
Sun 12:57:56 PM 35.3156 -86.2756 162° South 126 145 11,500  Level Memphis Center
Sun 12:58:56 PM 35.2797 -86.2647 166° South 126 145 11,500  Level Memphis Center
Sun 12:59:56 PM 35.2461 -86.2536 165° South 126 145 11,500  Level Memphis Center
Sun 01:00:56 PM 35.2125 -86.2450 168° South 126 145 11,500  Level Memphis Center
Sun 01:01:56 PM 35.1764 -86.2317 163° South 126 145 11,500  Level Memphis Center
Sun 01:02:56 PM 35.1447 -86.2181 161° South 126 145 11,500  Level Memphis Center
Sun 01:03:56 PM 35.1089 -86.2094 169° South 126 145 11,500  Level Memphis Center
Sun 01:04:56 PM 35.0731 -86.1961 163° South 126 145 11,500  Level Memphis Center
Sun 01:05:56 PM 35.0372 -86.1853 166° South 131 151 11,500  Level Memphis Center
Sun 01:06:56 PM 35.0033 -86.1717 162° South 131 151 11,500  Level Memphis Center
Sun 01:07:56 PM 34.9656 -86.1608 167° South 131 151 11,500  Level Memphis Center
Sun 01:08:56 PM 34.9317 -86.1500 165° South 126 145 11,500  Level Memphis Center
Sun 01:09:56 PM 34.8981 -86.1414 168° South 126 145 11,500  Level Memphis Center
Sun 01:10:56 PM 34.8622 -86.1306 166° South 126 145 11,500  Level Memphis Center
Sun 01:11:56 PM 34.8264 -86.1197 166° South 126 145 11,500  Level Memphis Center
Sun 01:12:56 PM 34.7886 -86.1089 167° South 126 145 11,500  Level Memphis Center
Sun 01:13:56 PM 34.7528 -86.0981 166° South 126 145 11,500  Level Memphis Center
Sun 01:16:10 PM 34.6792 -86.0722 164° South 116 133 11,500  Level Atlanta Center
Sun 01:17:10 PM 34.6417 -86.0611 166° South 129 148 11,500 -50 Level Atlanta Center
Sun 01:18:10 PM 34.6064 -86.0503 166° South 117 135 11,400 -200 Descending Atlanta Center
Sun 01:19:10 PM 34.5692 -86.0392 166° South 142 163 11,100 -250 Descending Atlanta Center
Sun 01:20:10 PM 34.5339 -86.0258 163° South 118 136 10,900 -200 Descending Atlanta Center
Sun 01:21:10 PM 34.4964 -86.0147 166° South 134 154 10,700 -200 Descending Atlanta Center
Sun 01:22:10 PM 34.4589 -86.0039 167° South 126 145 10,500 -200 Descending Atlanta Center
Sun 01:23:10 PM 34.4217 -85.9903 163° South 126 145 10,300 -200 Descending Atlanta Center
Sun 01:24:10 PM 34.3842 -85.9819 170° South 131 151 10,100 -200 Descending Atlanta Center
Sun 01:25:10 PM 34.3469 -85.9686 164° South 136 157 9,900 -200 Descending Atlanta Center
Sun 01:26:10 PM 34.3094 -85.9550 163° South 136 157 9,700 -200 Descending Atlanta Center
Sun 01:27:10 PM 34.2722 -85.9442 166° South 141 162 9,500 -250 Descending Atlanta Center
Sun 01:28:10 PM 34.2328 -85.9308 164° South 141 162 9,200 -250 Descending Atlanta Center
Sun 01:29:10 PM 34.1911 -85.9222 170° South 141 162 9,000 -200 Descending Atlanta Center
Sun 01:30:10 PM 34.1558 -85.9064 160° South 141 162 8,800 -200 Descending Atlanta Center
Sun 01:31:10 PM 34.1164 -85.8956 167° South 141 162 8,600 -150 Descending Atlanta Center
Sun 01:32:10 PM 34.0789 -85.8847 167° South 146 168 8,500 -150 Descending Atlanta Center
Sun 01:33:10 PM 34.0375 -85.8714 165° South 146 168 8,300 -200 Descending Atlanta Center
Sun 01:34:10 PM 34.0042 -85.8581 162° South 141 162 8,100 -200 Descending Atlanta Center

Login

Don't have an account? Register now (free) for customized features, flight alerts, and more!